Time;durP1;ratioP1;P1;durP2;ratioP2;P2;SDS_P1;SDS_P2;PMS_P1;PMS_P2;Temp;Humidity;BMP_temperature;BMP_pressure;BME280_temperature;BME280_humidity;BME280_pressure;Samples;Min_cycle;Max_cycle;Signal;HPM_P1;HPM_P2
2021/08/20 00:01:10;;;;;;;;;;;;;;;15.25;93.28;101469.44;5072827;28;20388;-44
2021/08/20 00:03:37;;;;;;;;;;;;;;;15.26;93.04;101463.19;5072771;28;20365;-46
2021/08/20 00:06:04;;;;;;;;;;;;;;;15.27;93.13;101472.84;5054278;28;19928;-43
2021/08/20 00:08:30;;;;;;;;;;;;;;;15.29;92.68;101478.03;5072120;28;19932;-45
2021/08/20 00:10:57;;;;;;;;;;;;;;;15.28;93.19;101471.88;5072571;28;20455;-48
2021/08/20 00:13:24;;;;;;;;;;;;;;;15.26;93.15;101476.44;5054661;28;20023;-58
2021/08/20 00:15:50;;;;;;;;;;;;;;;15.25;92.63;101477.41;5072829;28;19925;-58
2021/08/20 00:18:17;;;;;;;;;;;;;;;15.27;92.49;101487.88;5072583;28;19925;-58
2021/08/20 00:20:44;;;;;;;;;;;;;;;15.21;92.54;101481.25;5071172;28;20340;-58
2021/08/20 00:23:10;;;;;;;;;;;;;;;15.22;92.16;101475.00;5069498;28;19924;-58
2021/08/20 00:25:37;;;;;;;;;;;;;;;15.19;91.30;101469.94;5054615;28;19947;-58
2021/08/20 00:28:03;;;;;;;;;;;;;;;15.21;91.24;101470.66;5068420;28;19987;-58
2021/08/20 00:30:30;;;;;;;;;;;;;;;15.19;91.92;101473.41;5053309;28;19955;-58
2021/08/20 00:32:57;;;;;;;;;;;;;;;15.18;91.45;101469.06;5072814;28;20324;-58
2021/08/20 00:35:23;;;;;;;;;;;;;;;15.17;91.10;101466.53;5072458;28;19928;-58
2021/08/20 00:37:50;;;;;;;;;;;;;;;15.14;90.68;101470.25;5038187;28;20256;-58
2021/08/20 00:40:17;;;;;;;;;;;;;;;15.08;91.28;101472.50;5072574;28;19978;-58
2021/08/20 00:42:43;;;;;;;;;;;;;;;15.06;91.04;101471.78;5072503;28;19978;-58
2021/08/20 00:45:10;;;;;;;;;;;;;;;15.07;90.71;101474.31;5072603;28;19925;-58
2021/08/20 00:47:37;;;;;;;;;;;;;;;15.00;90.19;101466.00;5072505;28;19925;-58
2021/08/20 00:50:04;;;;;;;;;;;;;;;14.90;90.56;101464.97;5072185;28;19967;-45
2021/08/20 00:52:31;;;;;;;;;;;;;;;14.86;90.47;101463.50;5072476;28;19977;-47
2021/08/20 00:54:57;;;;;;;;;;;;;;;14.79;90.92;101449.91;5054562;28;19971;-49
2021/08/20 00:57:24;;;;;;;;;;;;;;;14.78;91.04;101447.34;5072471;28;19990;-44
2021/08/20 00:59:51;;;;;;;;;;;;;;;14.80;91.03;101453.38;5072423;28;19925;-49
2021/08/20 01:02:17;;;;;;;;;;;;;;;14.78;90.65;101448.19;5052192;28;20332;-46
2021/08/20 01:04:44;;;;;;;;;;;;;;;14.68;90.57;101450.69;5052111;28;20268;-48
2021/08/20 01:07:11;;;;;;;;;;;;;;;14.70;90.99;101451.41;5054299;28;20359;-57
2021/08/20 01:09:38;;;;;;;;;;;;;;;14.68;91.23;101452.47;5054776;28;19974;-58
2021/08/20 01:12:05;;;;;;;;;;;;;;;14.69;90.69;101452.34;5037771;28;19924;-58
2021/08/20 01:14:32;;;;;;;;;;;;;;;14.67;91.23;101456.94;5054544;28;19924;-58
2021/08/20 01:17:06;;;;;;;;;;;;;;;14.70;91.20;101454.03;5069721;28;19924;-58
2021/08/20 01:19:32;;;;;;;;;;;;;;;14.66;90.78;101454.41;5069622;28;19938;-58
2021/08/20 01:21:59;;;;;;;;;;;;;;;14.64;91.30;101449.22;5053998;28;19930;-58
2021/08/20 01:24:27;;;;;;;;;;;;;;;14.64;91.93;101456.28;5075404;28;19928;-58
2021/08/20 01:26:53;;;;;;;;;;;;;;;14.60;91.98;101453.00;5058001;28;19977;-58
2021/08/20 01:29:21;;;;;;;;;;;;;;;14.69;91.25;101443.56;5075850;28;20019;-58
2021/08/20 01:31:47;;;;;;;;;;;;;;;14.64;91.52;101448.34;5057364;28;19924;-48
2021/08/20 01:34:14;;;;;;;;;;;;;;;14.60;92.11;101445.06;5075028;28;19925;-45
2021/08/20 01:36:41;;;;;;;;;;;;;;;14.58;92.26;101448.78;5057472;28;19925;-48
2021/08/20 01:39:08;;;;;;;;;;;;;;;14.61;91.94;101461.78;5075384;28;19960;-44
2021/08/20 01:41:34;;;;;;;;;;;;;;;14.60;91.70;101450.38;5039845;28;19932;-58
2021/08/20 01:44:01;;;;;;;;;;;;;;;14.61;92.01;101461.78;5071114;28;19928;-58
2021/08/20 01:46:29;;;;;;;;;;;;;;;14.59;92.06;101453.97;5057678;28;19971;-58
2021/08/20 01:48:56;;;;;;;;;;;;;;;14.58;91.96;101460.19;5075433;28;19925;-58
2021/08/20 01:51:23;;;;;;;;;;;;;;;14.55;92.08;101460.44;5056763;28;19990;-58
2021/08/20 01:53:51;;;;;;;;;;;;;;;14.57;91.90;101460.31;5054042;28;20346;-58
2021/08/20 01:56:25;;;;;;;;;;;;;;;14.54;91.89;101462.22;5074480;28;19924;-58
2021/08/20 01:58:53;;;;;;;;;;;;;;;14.52;92.09;101455.38;5057290;28;20341;-58
2021/08/20 02:01:28;;;;;;;;;;;;;;;14.51;91.90;101461.59;5074920;28;20381;-58
2021/08/20 02:03:55;;;;;;;;;;;;;;;14.44;91.71;101453.25;5056465;28;19931;-58
2021/08/20 02:06:22;;;;;;;;;;;;;;;14.40;92.03;101449.16;5072654;28;19932;-58
2021/08/20 02:08:48;;;;;;;;;;;;;;;14.37;92.09;101452.84;5073865;28;19924;-58
2021/08/20 02:11:15;;;;;;;;;;;;;;;14.34;92.06;101449.56;5075045;28;20295;-58
2021/08/20 02:13:42;;;;;;;;;;;;;;;14.32;91.80;101441.75;5075032;28;19978;-43
2021/08/20 02:16:09;;;;;;;;;;;;;;;14.28;91.85;101450.88;5074780;28;19968;-50
2021/08/20 02:18:36;;;;;;;;;;;;;;;14.20;92.51;101456.69;5074787;28;19978;-43
2021/08/20 02:21:02;;;;;;;;;;;;;;;14.20;92.49;101450.56;5074701;28;19925;-46
2021/08/20 02:23:29;;;;;;;;;;;;;;;14.25;92.55;101456.38;5037662;28;19925;-48
2021/08/20 02:25:56;;;;;;;;;;;;;;;14.24;92.73;101454.69;5053878;28;19962;-57
2021/08/20 02:28:22;;;;;;;;;;;;;;;14.27;92.85;101457.09;5074569;28;19924;-58
2021/08/20 02:30:50;;;;;;;;;;;;;;;14.29;92.97;101449.91;5074450;28;19925;-58
2021/08/20 02:33:17;;;;;;;;;;;;;;;14.19;93.14;101456.81;5074026;28;19925;-57
2021/08/20 02:35:43;;;;;;;;;;;;;;;14.20;93.68;101447.91;5073623;28;19924;-57
2021/08/20 02:38:10;;;;;;;;;;;;;;;14.24;93.52;101451.19;5056510;28;19925;-57
2021/08/20 02:40:36;;;;;;;;;;;;;;;14.26;93.72;101452.78;5074244;28;19924;-58
2021/08/20 02:43:03;;;;;;;;;;;;;;;14.29;94.04;101441.97;5056353;28;19924;-58
2021/08/20 02:45:30;;;;;;;;;;;;;;;14.31;94.11;101448.00;5073586;28;20371;-58
2021/08/20 02:47:56;;;;;;;;;;;;;;;14.35;94.24;101448.63;5053617;28;19925;-58
2021/08/20 02:50:23;;;;;;;;;;;;;;;14.37;94.05;101444.91;5055076;28;19925;-45
2021/08/20 02:52:50;;;;;;;;;;;;;;;14.41;94.12;101449.97;5056418;28;20038;-46
2021/08/20 02:55:17;;;;;;;;;;;;;;;14.43;93.71;101442.78;5074236;28;19931;-58
2021/08/20 02:57:43;;;;;;;;;;;;;;;14.44;93.69;101445.31;5074002;28;19936;-58
2021/08/20 03:00:10;;;;;;;;;;;;;;;14.47;94.41;101449.56;5073963;28;19924;-58
2021/08/20 03:02:37;;;;;;;;;;;;;;;14.47;94.23;101444.25;5054500;28;19925;-58
2021/08/20 03:05:04;;;;;;;;;;;;;;;14.51;94.30;101451.03;5053686;28;20280;-58
2021/08/20 03:07:31;;;;;;;;;;;;;;;14.54;93.97;101446.34;5073561;28;20248;-58
2021/08/20 03:09:57;;;;;;;;;;;;;;;14.57;93.86;101455.84;5073314;28;19924;-58
2021/08/20 03:12:24;;;;;;;;;;;;;;;14.57;93.76;101455.03;5071158;28;19928;-57
2021/08/20 03:14:52;;;;;;;;;;;;;;;14.61;92.89;101446.75;5070161;28;20318;-43
2021/08/20 03:17:18;;;;;;;;;;;;;;;14.60;93.43;101444.22;5056088;28;19932;-43
2021/08/20 03:19:45;;;;;;;;;;;;;;;14.62;93.11;101447.59;5073320;28;19924;-44
2021/08/20 03:22:12;;;;;;;;;;;;;;;14.66;93.54;101441.16;5055474;28;19931;-43
2021/08/20 03:24:39;;;;;;;;;;;;;;;14.65;93.59;101445.59;5071049;28;20367;-43
2021/08/20 03:27:05;;;;;;;;;;;;;;;14.64;93.94;101451.88;5070877;28;19932;-43
2021/08/20 03:29:32;;;;;;;;;;;;;;;14.65;94.27;101450.88;5071955;28;19924;-43
2021/08/20 03:31:59;;;;;;;;;;;;;;;14.68;94.00;101450.69;5069761;28;20376;-45
2021/08/20 03:34:25;;;;;;;;;;;;;;;14.73;94.40;101446.84;5072201;28;19970;-47
2021/08/20 03:36:52;;;;;;;;;;;;;;;14.77;94.18;101450.97;5072535;28;19962;-45
2021/08/20 03:39:18;;;;;;;;;;;;;;;14.76;94.94;101439.50;5073214;28;20337;-48
2021/08/20 03:41:45;;;;;;;;;;;;;;;14.75;95.17;101439.63;5038695;28;19928;-46
2021/08/20 03:44:12;;;;;;;;;;;;;;;14.79;94.63;101441.97;5073136;28;19979;-48
2021/08/20 03:46:38;;;;;;;;;;;;;;;14.80;94.90;101437.50;5055084;28;20391;-48
2021/08/20 03:49:05;;;;;;;;;;;;;;;14.82;94.96;101444.38;5070784;28;19928;-49
2021/08/20 03:51:32;;;;;;;;;;;;;;;14.85;94.63;101443.31;5070495;28;19925;-45
2021/08/20 03:54:03;;;;;;;;;;;;;;;14.87;94.84;101447.53;5072928;28;19924;-50
2021/08/20 03:56:29;;;;;;;;;;;;;;;14.88;94.81;101456.31;5073335;28;20433;-58
2021/08/20 03:58:58;;;;;;;;;;;;;;;14.91;94.73;101456.06;5072983;28;19986;-58
2021/08/20 04:01:25;;;;;;;;;;;;;;;14.90;95.17;101451.72;5055547;28;20026;-50
2021/08/20 04:03:52;;;;;;;;;;;;;;;14.93;94.93;101445.34;5055046;28;20391;-47
2021/08/20 04:06:19;;;;;;;;;;;;;;;14.94;94.73;101450.53;5072747;28;19928;-48
2021/08/20 04:08:45;;;;;;;;;;;;;;;14.95;94.83;101449.59;5072380;28;19970;-49
2021/08/20 04:11:12;;;;;;;;;;;;;;;14.98;94.68;101452.03;5072618;28;19924;-47
2021/08/20 04:13:39;;;;;;;;;;;;;;;14.98;94.61;101452.03;5055227;28;19924;-50
2021/08/20 04:16:07;;;;;;;;;;;;;;;15.00;95.25;101446.63;5072723;28;19925;-58
2021/08/20 04:18:34;;;;;;;;;;;;;;;15.01;95.46;101449.16;5072623;28;19928;-58
2021/08/20 04:21:00;;;;;;;;;;;;;;;15.00;95.24;101447.44;5055174;28;19930;-58
2021/08/20 04:23:27;;;;;;;;;;;;;;;15.04;94.91;101456.03;5055058;28;19928;-58
2021/08/20 04:25:54;;;;;;;;;;;;;;;15.06;94.88;101462.03;5074824;28;19931;-58
2021/08/20 04:28:20;;;;;;;;;;;;;;;15.06;94.97;101456.75;5082510;28;19935;-58
2021/08/20 04:30:47;;;;;;;;;;;;;;;15.07;95.32;101457.59;5080763;28;19973;-59
2021/08/20 04:33:14;;;;;;;;;;;;;;;15.08;95.11;101464.56;5048722;28;19974;-58
2021/08/20 04:35:40;;;;;;;;;;;;;;;15.12;95.07;101458.06;5050233;28;20338;-58
2021/08/20 04:38:07;;;;;;;;;;;;;;;15.12;95.07;101464.25;5071127;28;19924;-59
2021/08/20 04:40:33;;;;;;;;;;;;;;;15.13;95.56;101470.38;5077406;28;19970;-58
2021/08/20 04:43:00;;;;;;;;;;;;;;;15.15;95.38;101471.13;5083618;28;20310;-58
2021/08/20 04:45:27;;;;;;;;;;;;;;;15.17;95.27;101471.84;5076462;28;19925;-58
2021/08/20 04:47:53;;;;;;;;;;;;;;;15.18;95.14;101477.00;5083544;28;19924;-58
2021/08/20 04:50:20;;;;;;;;;;;;;;;15.18;95.39;101481.47;5081244;28;20006;-58
2021/08/20 04:52:47;;;;;;;;;;;;;;;15.22;95.48;101475.00;5082474;28;19928;-58
2021/08/20 04:55:14;;;;;;;;;;;;;;;15.23;95.08;101484.63;5077340;28;19924;-58
2021/08/20 04:57:41;;;;;;;;;;;;;;;15.25;95.15;101482.69;5081641;28;19924;-58
2021/08/20 05:00:07;;;;;;;;;;;;;;;15.28;95.01;101481.63;5089994;28;20409;-47
2021/08/20 05:02:36;;;;;;;;;;;;;;;15.29;94.89;101491.28;5083912;28;19933;-46
2021/08/20 05:05:06;;;;;;;;;;;;;;;15.25;94.83;101482.69;5065960;28;19928;-44
2021/08/20 05:07:36;;;;;;;;;;;;;;;15.28;94.68;101484.28;5081775;28;20391;-44
2021/08/20 05:10:06;;;;;;;;;;;;;;;15.33;94.49;101485.63;5082137;28;19924;-58
2021/08/20 05:12:33;;;;;;;;;;;;;;;15.30;95.00;101483.22;5084560;28;19970;-58
2021/08/20 05:14:59;;;;;;;;;;;;;;;15.33;95.03;101477.66;5086781;28;19924;-59
2021/08/20 05:17:26;;;;;;;;;;;;;;;15.32;95.64;101486.56;5083837;28;19925;-58
2021/08/20 05:19:53;;;;;;;;;;;;;;;15.35;95.06;101486.38;5080903;28;19931;-58
2021/08/20 05:22:19;;;;;;;;;;;;;;;15.38;94.93;101493.25;5080911;28;19928;-59
2021/08/20 05:24:46;;;;;;;;;;;;;;;15.40;95.09;101499.25;5065384;28;19989;-46
2021/08/20 05:27:13;;;;;;;;;;;;;;;15.42;95.11;101509.75;5082588;28;19959;-46
2021/08/20 05:29:39;;;;;;;;;;;;;;;15.41;95.30;101506.25;5080463;28;19931;-47
2021/08/20 05:32:08;;;;;;;;;;;;;;;15.43;95.59;101500.84;5078615;28;20371;-47
2021/08/20 05:34:36;;;;;;;;;;;;;;;15.46;95.11;101501.47;5068632;28;19928;-43
2021/08/20 05:37:03;;;;;;;;;;;;;;;15.49;95.27;101503.03;5082967;28;19924;-48
2021/08/20 05:39:29;;;;;;;;;;;;;;;15.50;95.14;101497.63;5084146;28;20376;-47
2021/08/20 05:41:56;;;;;;;;;;;;;;;15.47;95.30;101500.47;5077357;28;19925;-49
2021/08/20 05:44:22;;;;;;;;;;;;;;;15.47;95.58;101505.78;5080263;28;19931;-45
2021/08/20 05:46:49;;;;;;;;;;;;;;;15.51;95.83;101499.28;5062899;28;19965;-58
2021/08/20 05:49:16;;;;;;;;;;;;;;;15.57;95.61;101505.09;5064486;28;19933;-59
2021/08/20 05:51:42;;;;;;;;;;;;;;;15.58;95.43;101507.63;5085234;28;20372;-57
2021/08/20 05:54:09;;;;;;;;;;;;;;;15.59;95.79;101509.31;5087182;28;20309;-59
2021/08/20 05:56:36;;;;;;;;;;;;;;;15.62;95.51;101510.88;5083260;28;19924;-48
2021/08/20 05:59:02;;;;;;;;;;;;;;;15.62;95.29;101511.72;5085191;28;19924;-46
2021/08/20 06:01:29;;;;;;;;;;;;;;;15.65;94.79;101514.16;5062849;28;19944;-45
2021/08/20 06:03:56;;;;;;;;;;;;;;;15.68;94.90;101516.56;5077659;28;19924;-45
2021/08/20 06:06:22;;;;;;;;;;;;;;;15.75;95.29;101527.56;5063833;28;20287;-48
2021/08/20 06:08:49;;;;;;;;;;;;;;;15.78;94.78;101523.84;5084105;28;20370;-46
2021/08/20 06:11:16;;;;;;;;;;;;;;;15.79;94.78;101521.06;5066862;28;19955;-45
2021/08/20 06:13:43;;;;;;;;;;;;;;;15.84;94.61;101523.38;5065077;28;19978;-46
2021/08/20 06:16:10;;;;;;;;;;;;;;;15.90;94.36;101525.56;5081083;28;19994;-48
2021/08/20 06:18:37;;;;;;;;;;;;;;;15.94;94.60;101523.50;5079928;28;19936;-49
2021/08/20 06:21:03;;;;;;;;;;;;;;;15.93;94.60;101519.19;5079824;28;20336;-58
2021/08/20 06:23:30;;;;;;;;;;;;;;;15.89;94.46;101527.34;5066106;28;19924;-58
2021/08/20 06:25:57;;;;;;;;;;;;;;;15.97;94.49;101526.78;5062971;28;19924;-58
2021/08/20 06:28:23;;;;;;;;;;;;;;;15.97;94.47;101526.78;5083428;28;19931;-58
2021/08/20 06:30:51;;;;;;;;;;;;;;;16.04;94.15;101527.97;5084896;28;19971;-58
2021/08/20 06:33:17;;;;;;;;;;;;;;;16.00;94.31;101525.69;5083063;28;19962;-58
2021/08/20 06:35:44;;;;;;;;;;;;;;;16.07;94.31;101520.75;5084082;28;19970;-48
2021/08/20 06:38:11;;;;;;;;;;;;;;;16.10;93.85;101516.06;5080238;28;19924;-48
2021/08/20 06:40:37;;;;;;;;;;;;;;;16.14;93.61;101512.22;5080981;28;20019;-47
2021/08/20 06:43:04;;;;;;;;;;;;;;;16.19;93.70;101517.16;5081882;28;19977;-45
2021/08/20 06:45:31;;;;;;;;;;;;;;;16.26;93.24;101518.34;5086254;28;19931;-46
2021/08/20 06:47:58;;;;;;;;;;;;;;;16.35;93.49;101517.63;5066063;28;19930;-47
2021/08/20 06:50:25;;;;;;;;;;;;;;;16.50;93.48;101522.69;5078148;28;19924;-47
2021/08/20 06:52:51;;;;;;;;;;;;;;;16.55;92.58;101520.50;5084500;28;20014;-44
2021/08/20 06:55:20;;;;;;;;;;;;;;;16.67;93.14;101529.31;5064859;28;19971;-50
2021/08/20 06:57:46;;;;;;;;;;;;;;;16.76;92.99;101530.38;5083559;28;19998;-47
2021/08/20 07:00:13;;;;;;;;;;;;;;;16.87;92.73;101522.38;5084846;28;20294;-45
2021/08/20 07:02:43;;;;;;;;;;;;;;;16.96;91.84;101523.47;5081864;28;19946;-49
2021/08/20 07:05:11;;;;;;;;;;;;;;;17.04;92.07;101524.56;5061155;28;20003;-49
2021/08/20 07:07:38;;;;;;;;;;;;;;;17.14;91.93;101527.28;5084153;28;19960;-45
2021/08/20 07:10:15;;;;;;;;;;;;;;;17.26;92.15;101528.09;5081321;28;20445;-44
2021/08/20 07:12:41;;;;;;;;;;;;;;;17.33;90.37;101531.94;5063559;28;19977;-43
2021/08/20 07:15:09;;;;;;;;;;;;;;;17.35;90.58;101535.28;5054416;28;19928;-45
2021/08/20 07:17:35;;;;;;;;;;;;;;;17.39;89.74;101539.38;5082014;28;20395;-45
2021/08/20 07:20:02;;;;;;;;;;;;;;;17.46;89.42;101537.06;5061996;28;20384;-46
2021/08/20 07:22:29;;;;;;;;;;;;;;;17.51;89.15;101534.03;5081252;28;20433;-45
2021/08/20 07:24:56;;;;;;;;;;;;;;;17.54;89.01;101534.59;5065430;28;19973;-49
2021/08/20 07:27:23;;;;;;;;;;;;;;;17.55;88.95;101538.13;5079733;28;19928;-48
2021/08/20 07:29:50;;;;;;;;;;;;;;;17.62;88.30;101544.59;5076625;28;19924;-49
2021/08/20 07:32:16;;;;;;;;;;;;;;;17.66;88.01;101548.69;5065430;28;19927;-46
2021/08/20 07:34:43;;;;;;;;;;;;;;;17.70;88.21;101554.59;5079759;28;19935;-47
2021/08/20 07:37:10;;;;;;;;;;;;;;;17.76;88.91;101553.22;5058587;28;19928;-48
2021/08/20 07:39:36;;;;;;;;;;;;;;;17.76;87.95;101547.91;5060261;28;19928;-49
2021/08/20 07:42:04;;;;;;;;;;;;;;;17.81;88.10;101543.06;5058153;28;19951;-49
2021/08/20 07:44:30;;;;;;;;;;;;;;;17.88;87.61;101547.69;5060766;28;19925;-47
2021/08/20 07:46:57;;;;;;;;;;;;;;;17.84;87.42;101553.44;5058821;28;19924;-48
2021/08/20 07:49:24;;;;;;;;;;;;;;;17.96;87.49;101556.91;5059106;28;19924;-49
2021/08/20 07:51:51;;;;;;;;;;;;;;;17.97;87.00;101554.09;5054539;28;19931;-47
2021/08/20 07:54:18;;;;;;;;;;;;;;;18.02;87.25;101556.34;5060826;28;20380;-46
2021/08/20 07:56:45;;;;;;;;;;;;;;;18.06;86.91;101558.66;5062718;28;19931;-48
2021/08/20 07:59:11;;;;;;;;;;;;;;;18.12;86.95;101564.38;5059635;28;19925;-46
2021/08/20 08:01:38;;;;;;;;;;;;;;;18.15;86.62;101569.47;5059166;28;19925;-45
2021/08/20 08:04:05;;;;;;;;;;;;;;;18.24;86.57;101577.50;5064435;28;19956;-49
2021/08/20 08:06:32;;;;;;;;;;;;;;;18.31;86.22;101567.16;5060286;28;19925;-45
2021/08/20 08:08:59;;;;;;;;;;;;;;;18.39;86.35;101569.16;5060259;28;19925;-48
2021/08/20 08:11:30;;;;;;;;;;;;;;;18.42;86.31;101569.72;5044376;28;19928;-48
2021/08/20 08:14:03;;;;;;;;;;;;;;;18.50;85.53;101570.88;5060801;28;19932;-46
2021/08/20 08:16:33;;;;;;;;;;;;;;;18.56;85.28;101578.34;5057606;28;20284;-50
2021/08/20 08:19:01;;;;;;;;;;;;;;;18.58;85.44;101576.38;5058893;28;19929;-59
2021/08/20 08:21:28;;;;;;;;;;;;;;;18.66;84.98;101581.88;5058442;28;19928;-59
2021/08/20 08:23:56;;;;;;;;;;;;;;;18.71;84.95;101576.97;5061992;28;19947;-59
2021/08/20 08:26:23;;;;;;;;;;;;;;;18.84;84.56;101573.22;5058891;28;19969;-59
2021/08/20 08:28:51;;;;;;;;;;;;;;;19.03;84.48;101575.97;5055612;28;20378;-59
2021/08/20 08:31:18;;;;;;;;;;;;;;;19.17;83.67;101571.22;5061319;28;20375;-59
2021/08/20 08:33:44;;;;;;;;;;;;;;;19.20;83.29;101569.13;5064904;28;19925;-59
2021/08/20 08:36:11;;;;;;;;;;;;;;;19.33;83.00;101576.81;5061371;28;20384;-58
2021/08/20 08:38:38;;;;;;;;;;;;;;;19.45;82.03;101569.53;5061661;28;19924;-58
2021/08/20 08:41:04;;;;;;;;;;;;;;;19.55;81.36;101569.53;5066288;28;20445;-58
2021/08/20 08:43:31;;;;;;;;;;;;;;;19.65;80.38;101570.38;5068462;28;19936;-58
2021/08/20 08:46:01;;;;;;;;;;;;;;;19.70;80.33;101575.28;5085273;28;19924;-58
2021/08/20 08:48:27;;;;;;;;;;;;;;;19.67;80.96;101575.56;5084395;28;19924;-58
2021/08/20 08:50:54;;;;;;;;;;;;;;;19.72;79.81;101582.16;5064632;28;19925;-58
2021/08/20 08:53:21;;;;;;;;;;;;;;;19.73;79.41;101569.69;5065998;28;20019;-58
2021/08/20 08:55:57;;;;;;;;;;;;;;;19.79;78.87;101573.59;5066441;28;19961;-58
2021/08/20 08:58:24;;;;;;;;;;;;;;;19.91;78.84;101564.47;5083924;28;20632;-46
2021/08/20 09:00:50;;;;;;;;;;;;;;;20.19;79.50;101572.53;5064203;28;19933;-45
2021/08/20 09:03:24;;;;;;;;;;;;;;;20.40;79.05;101567.81;5083293;28;20302;-44
2021/08/20 09:05:51;;;;;;;;;;;;;;;20.39;75.66;101560.78;5066724;28;20034;-43
2021/08/20 09:08:19;;;;;;;;;;;;;;;20.60;76.23;101575.75;5084063;28;19925;-48
2021/08/20 09:10:49;;;;;;;;;;;;;;;20.66;75.97;101569.00;5067249;28;19928;-44
2021/08/20 09:13:16;;;;;;;;;;;;;;;20.72;75.89;101566.59;5087709;28;20526;-46
2021/08/20 09:15:45;;;;;;;;;;;;;;;20.82;75.62;101571.00;5044528;28;20277;-45
2021/08/20 09:18:19;;;;;;;;;;;;;;;20.79;74.94;101572.16;5062585;28;19935;-45
2021/08/20 09:20:46;;;;;;;;;;;;;;;20.80;74.74;101587.22;5063926;28;20379;-46
2021/08/20 09:23:20;;;;;;;;;;;;;;;21.01;74.95;101581.63;5088196;28;19932;-58
2021/08/20 09:25:47;;;;;;;;;;;;;;;21.14;74.31;101572.38;5084657;28;19932;-59
2021/08/20 09:28:15;;;;;;;;;;;;;;;21.33;72.69;101582.91;5083490;28;19924;-58
2021/08/20 09:30:43;;;;;;;;;;;;;;;21.58;73.48;101572.47;5085157;28;19924;-58
2021/08/20 09:33:11;;;;;;;;;;;;;;;21.85;71.58;101584.03;5084984;28;19931;-58
2021/08/20 09:35:39;;;;;;;;;;;;;;;22.04;71.33;101591.88;5086375;28;19970;-59
2021/08/20 09:38:06;;;;;;;;;;;;;;;22.11;69.63;101590.25;5083022;28;19924;-59
2021/08/20 09:40:37;;;;;;;;;;;;;;;22.17;69.30;101588.78;5078125;28;19929;-58
2021/08/20 09:43:17;;;;;;;;;;;;;;;22.06;70.22;101589.03;5074591;28;19931;-58
2021/08/20 09:46:03;;;;;;;;;;;;;;;22.08;69.16;101587.03;5072417;28;20382;-58
2021/08/20 09:48:39;;;;;;;;;;;;;;;22.24;69.09;101589.00;5055583;28;19928;-58
2021/08/20 09:51:06;;;;;;;;;;;;;;;22.51;68.16;101592.47;5075038;28;19924;-58
2021/08/20 09:53:32;;;;;;;;;;;;;;;22.69;68.40;101582.53;5057185;28;19924;-59
2021/08/20 09:56:03;;;;;;;;;;;;;;;23.14;67.81;101583.19;5074730;28;19924;-59
2021/08/20 09:58:33;;;;;;;;;;;;;;;23.44;65.31;101587.06;5056842;28;20018;-51
2021/08/20 10:01:01;;;;;;;;;;;;;;;23.40;63.87;101585.72;5074058;28;19968;-48
2021/08/20 10:03:29;;;;;;;;;;;;;;;23.61;63.79;101587.06;5071173;28;20023;-46
2021/08/20 10:05:56;;;;;;;;;;;;;;;23.84;63.68;101584.53;5055370;28;19951;-58
2021/08/20 10:08:23;;;;;;;;;;;;;;;23.92;62.77;101581.03;5040477;28;20106;-59
2021/08/20 10:10:50;;;;;;;;;;;;;;;24.13;61.54;101575.94;5056894;28;19925;-59
2021/08/20 10:13:17;;;;;;;;;;;;;;;24.47;62.24;101582.03;5056847;28;20399;-59
2021/08/20 10:15:44;;;;;;;;;;;;;;;24.76;58.26;101586.81;5057050;28;19929;-60
2021/08/20 10:18:14;;;;;;;;;;;;;;;24.66;56.88;101580.81;5079804;28;19924;-60
2021/08/20 10:20:41;;;;;;;;;;;;;;;24.80;58.98;101596.22;5080088;28;20402;-59
2021/08/20 10:23:10;;;;;;;;;;;;;;;25.07;56.99;101586.00;5053062;28;20495;-60
2021/08/20 10:25:37;;;;;;;;;;;;;;;25.01;56.32;101592.06;5040191;28;20019;-59
2021/08/20 10:28:03;;;;;;;;;;;;;;;25.14;55.90;101592.31;5056891;28;19932;-59
2021/08/20 10:30:30;;;;;;;;;;;;;;;25.16;56.19;101591.31;5074806;28;19970;-60
2021/08/20 10:32:57;;;;;;;;;;;;;;;24.97;58.05;101596.13;5056716;28;19928;-60
2021/08/20 10:35:47;;;;;;;;;;;;;;;25.09;55.87;101589.31;5081154;28;19963;-59
2021/08/20 10:38:34;;;;;;;;;;;;;;;25.12;55.87;101586.28;5085478;28;19924;-59
2021/08/20 10:41:19;;;;;;;;;;;;;;;25.17;55.80;101591.13;5092633;28;19928;-59
2021/08/20 10:43:46;;;;;;;;;;;;;;;25.34;55.59;101591.88;5075019;28;19951;-60
2021/08/20 10:46:42;;;;;;;;;;;;;;;25.41;55.17;101582.03;5074136;28;19925;-60
2021/08/20 10:49:12;;;;;;;;;;;;;;;25.46;55.29;101593.13;4996452;28;20409;-59
2021/08/20 10:51:51;;;;;;;;;;;;;;;25.64;55.25;101590.09;5052983;28;19924;-59
2021/08/20 10:54:41;;;;;;;;;;;;;;;25.19;53.52;101605.22;5053574;28;19979;-60
2021/08/20 10:57:10;;;;;;;;;;;;;;;25.05;53.51;101596.06;5053800;28;19929;-60
2021/08/20 10:59:42;;;;;;;;;;;;;;;25.05;53.90;101608.69;5036579;28;19925;-59
2021/08/20 11:02:17;;;;;;;;;;;;;;;24.97;53.70;101607.72;5053931;28;19975;-59
2021/08/20 11:05:03;;;;;;;;;;;;;;;24.95;52.82;101608.91;5052026;28;19939;-59
2021/08/20 11:07:36;;;;;;;;;;;;;;;24.96;52.85;101605.19;5051117;28;19948;-59
2021/08/20 11:10:08;;;;;;;;;;;;;;;25.18;54.04;101600.03;5036022;28;19924;-58
2021/08/20 11:12:35;;;;;;;;;;;;;;;25.31;54.00;101598.41;5053836;28;19925;-59
2021/08/20 11:15:25;;;;;;;;;;;;;;;25.41;52.86;101602.75;5053813;28;19929;-58
2021/08/20 11:17:56;;;;;;;;;;;;;;;25.54;53.23;101599.47;5066048;28;20444;-59
2021/08/20 11:20:23;;;;;;;;;;;;;;;25.66;51.58;101600.72;5045103;28;20037;-59
2021/08/20 11:23:07;;;;;;;;;;;;;;;25.65;51.17;101599.03;5073192;28;19924;-60
2021/08/20 11:25:46;;;;;;;;;;;;;;;25.84;51.41;101603.06;5073605;28;19928;-59
2021/08/20 11:28:17;;;;;;;;;;;;;;;25.90;48.56;101605.03;5040848;28;19928;-59
2021/08/20 11:31:08;;;;;;;;;;;;;;;25.72;49.90;101599.97;5055742;28;19946;-59
2021/08/20 11:33:35;;;;;;;;;;;;;;;26.17;48.75;101605.47;5073274;28;19924;-59
2021/08/20 11:36:03;;;;;;;;;;;;;;;26.62;47.48;101595.47;5072592;28;19924;-59
2021/08/20 11:38:48;;;;;;;;;;;;;;;26.98;48.44;101599.25;5069380;28;19951;-59
2021/08/20 11:41:26;;;;;;;;;;;;;;;26.91;49.82;101598.34;5070630;28;19982;-59
2021/08/20 11:43:59;;;;;;;;;;;;;;;27.40;47.66;101600.31;5076302;28;19924;-60
2021/08/20 11:46:27;;;;;;;;;;;;;;;27.90;46.45;101596.81;5080911;28;19925;-60
2021/08/20 11:48:54;;;;;;;;;;;;;;;28.17;44.97;101601.38;5073059;28;19925;-59
2021/08/20 11:51:25;;;;;;;;;;;;;;;28.03;45.59;101602.31;5072479;28;20385;-60
2021/08/20 11:53:52;;;;;;;;;;;;;;;28.24;45.47;101604.13;5052527;28;19924;-59
2021/08/20 11:56:19;;;;;;;;;;;;;;;28.68;44.04;101599.34;5037664;28;19924;-59
2021/08/20 11:58:45;;;;;;;;;;;;;;;28.91;43.13;101603.59;5078350;28;19932;-59
2021/08/20 12:01:34;;;;;;;;;;;;;;;28.91;43.52;101595.47;5061075;28;19932;-60
2021/08/20 12:04:01;;;;;;;;;;;;;;;28.58;44.75;101606.97;5083171;28;19942;-60
2021/08/20 12:06:28;;;;;;;;;;;;;;;28.40;43.92;101608.38;5077848;28;19924;-59
2021/08/20 12:08:57;;;;;;;;;;;;;;;28.09;43.80;101606.09;5061181;28;19924;-59
2021/08/20 12:11:24;;;;;;;;;;;;;;;27.62;43.59;101609.28;5057215;28;20454;-59
2021/08/20 12:13:52;;;;;;;;;;;;;;;27.85;44.32;101612.75;5046546;28;21680;-59
2021/08/20 12:16:34;;;;;;;;;;;;;;;28.39;42.74;101611.28;5064232;28;20367;-60
2021/08/20 12:19:11;;;;;;;;;;;;;;;28.59;43.21;101608.63;5059631;28;19959;-60
2021/08/20 12:21:38;;;;;;;;;;;;;;;28.91;44.29;101611.72;5047206;28;19982;-60
2021/08/20 12:24:08;;;;;;;;;;;;;;;29.17;41.80;101608.22;5061146;28;19924;-60
2021/08/20 12:26:34;;;;;;;;;;;;;;;29.46;39.53;101598.94;5080826;28;20046;-58
2021/08/20 12:29:11;;;;;;;;;;;;;;;29.59;40.22;101598.09;5068708;28;19931;-60
2021/08/20 12:31:37;;;;;;;;;;;;;;;29.54;40.42;101605.19;5046747;28;19933;-59
2021/08/20 12:34:05;;;;;;;;;;;;;;;29.42;40.60;101594.94;5057959;28;19924;-60
2021/08/20 12:36:32;;;;;;;;;;;;;;;29.22;41.67;101610.31;5078692;28;20423;-60
2021/08/20 12:39:12;;;;;;;;;;;;;;;29.91;42.25;101603.72;5071784;28;20302;-60
2021/08/20 12:41:39;;;;;;;;;;;;;;;29.80;41.22;101602.44;5076786;28;19928;-60